sensor_id;sensor_type;location;lat;lon;timestamp;P1;durP1;ratioP1;P2;durP2;ratioP2
46439;SDS011;32138;50.966;6.968;2023-03-21T00:00:59;16.88;;;12.88;;
46439;SDS011;32138;50.966;6.968;2023-03-21T00:02:04;10.02;;;4.68;;
46439;SDS011;32138;50.966;6.968;2023-03-21T00:03:05;11.45;;;4.40;;
46439;SDS011;32138;50.966;6.968;2023-03-21T00:04:06;9.07;;;4.15;;
46439;SDS011;32138;50.966;6.968;2023-03-21T00:05:07;10.25;;;4.10;;
46439;SDS011;32138;50.966;6.968;2023-03-21T00:06:09;12.60;;;4.93;;
46439;SDS011;32138;50.966;6.968;2023-03-21T00:07:12;10.88;;;4.78;;
46439;SDS011;32138;50.966;6.968;2023-03-21T00:08:12;12.57;;;4.70;;
46439;SDS011;32138;50.966;6.968;2023-03-21T00:09:13;12.00;;;4.18;;
46439;SDS011;32138;50.966;6.968;2023-03-21T00:10:14;12.10;;;4.30;;
46439;SDS011;32138;50.966;6.968;2023-03-21T00:11:15;12.35;;;5.18;;
46439;SDS011;32138;50.966;6.968;2023-03-21T00:12:16;10.13;;;4.18;;
46439;SDS011;32138;50.966;6.968;2023-03-21T00:13:20;10.48;;;4.78;;
46439;SDS011;32138;50.966;6.968;2023-03-21T00:14:20;10.25;;;4.97;;
46439;SDS011;32138;50.966;6.968;2023-03-21T00:15:23;11.40;;;4.30;;
46439;SDS011;32138;50.966;6.968;2023-03-21T00:16:27;9.98;;;4.57;;
46439;SDS011;32138;50.966;6.968;2023-03-21T00:17:31;8.95;;;3.80;;
46439;SDS011;32138;50.966;6.968;2023-03-21T00:18:33;7.38;;;3.90;;
46439;SDS011;32138;50.966;6.968;2023-03-21T00:19:40;10.75;;;4.45;;
46439;SDS011;32138;50.966;6.968;2023-03-21T00:20:43;12.02;;;4.60;;
46439;SDS011;32138;50.966;6.968;2023-03-21T00:21:45;13.15;;;4.10;;
46439;SDS011;32138;50.966;6.968;2023-03-21T00:22:46;9.65;;;4.10;;
46439;SDS011;32138;50.966;6.968;2023-03-21T00:23:47;13.07;;;5.03;;
46439;SDS011;32138;50.966;6.968;2023-03-21T00:24:48;13.40;;;4.57;;
46439;SDS011;32138;50.966;6.968;2023-03-21T00:25:51;9.38;;;4.30;;
46439;SDS011;32138;50.966;6.968;2023-03-21T00:26:51;10.40;;;4.57;;
46439;SDS011;32138;50.966;6.968;2023-03-21T00:27:52;13.93;;;4.75;;
46439;SDS011;32138;50.966;6.968;2023-03-21T00:28:53;13.20;;;3.55;;
46439;SDS011;32138;50.966;6.968;2023-03-21T00:29:54;10.05;;;4.22;;
46439;SDS011;32138;50.966;6.968;2023-03-21T00:30:58;8.82;;;4.70;;
46439;SDS011;32138;50.966;6.968;2023-03-21T00:31:59;8.68;;;4.43;;
46439;SDS011;32138;50.966;6.968;2023-03-21T00:33:00;11.20;;;3.75;;
46439;SDS011;32138;50.966;6.968;2023-03-21T00:34:01;12.90;;;4.32;;
46439;SDS011;32138;50.966;6.968;2023-03-21T00:35:01;11.82;;;4.25;;
46439;SDS011;32138;50.966;6.968;2023-03-21T00:36:02;9.85;;;3.80;;
46439;SDS011;32138;50.966;6.968;2023-03-21T00:37:04;11.32;;;4.72;;
46439;SDS011;32138;50.966;6.968;2023-03-21T00:38:06;9.90;;;4.03;;
46439;SDS011;32138;50.966;6.968;2023-03-21T00:39:07;11.13;;;4.32;;
46439;SDS011;32138;50.966;6.968;2023-03-21T00:40:08;8.13;;;3.58;;
46439;SDS011;32138;50.966;6.968;2023-03-21T00:41:11;9.27;;;4.32;;
46439;SDS011;32138;50.966;6.968;2023-03-21T00:42:15;10.45;;;4.57;;
46439;SDS011;32138;50.966;6.968;2023-03-21T00:43:16;12.02;;;4.65;;
46439;SDS011;32138;50.966;6.968;2023-03-21T00:44:18;11.07;;;5.13;;
46439;SDS011;32138;50.966;6.968;2023-03-21T00:45:20;8.90;;;4.13;;
46439;SDS011;32138;50.966;6.968;2023-03-21T00:46:21;10.30;;;3.90;;
46439;SDS011;32138;50.966;6.968;2023-03-21T00:47:22;7.18;;;3.65;;
46439;SDS011;32138;50.966;6.968;2023-03-21T00:48:23;8.63;;;4.20;;
46439;SDS011;32138;50.966;6.968;2023-03-21T00:49:24;9.00;;;4.22;;
46439;SDS011;32138;50.966;6.968;2023-03-21T00:50:26;10.75;;;4.68;;
46439;SDS011;32138;50.966;6.968;2023-03-21T00:51:27;10.82;;;4.22;;
46439;SDS011;32138;50.966;6.968;2023-03-21T00:52:28;9.40;;;4.25;;
46439;SDS011;32138;50.966;6.968;2023-03-21T00:53:28;14.75;;;4.15;;
46439;SDS011;32138;50.966;6.968;2023-03-21T00:54:30;9.77;;;4.00;;
46439;SDS011;32138;50.966;6.968;2023-03-21T00:55:31;8.45;;;3.83;;
46439;SDS011;32138;50.966;6.968;2023-03-21T00:56:32;10.73;;;4.60;;
46439;SDS011;32138;50.966;6.968;2023-03-21T00:57:36;7.28;;;4.18;;
46439;SDS011;32138;50.966;6.968;2023-03-21T00:58:37;10.07;;;3.90;;
46439;SDS011;32138;50.966;6.968;2023-03-21T00:59:38;8.30;;;3.85;;
46439;SDS011;32138;50.966;6.968;2023-03-21T01:00:39;10.73;;;4.47;;
46439;SDS011;32138;50.966;6.968;2023-03-21T01:01:40;11.77;;;4.43;;
46439;SDS011;32138;50.966;6.968;2023-03-21T01:02:40;11.82;;;3.80;;
46439;SDS011;32138;50.966;6.968;2023-03-21T01:03:55;10.95;;;4.35;;
46439;SDS011;32138;50.966;6.968;2023-03-21T01:05:10;9.80;;;4.55;;
46439;SDS011;32138;50.966;6.968;2023-03-21T01:06:11;8.52;;;3.95;;
46439;SDS011;32138;50.966;6.968;2023-03-21T01:07:12;11.57;;;4.30;;
46439;SDS011;32138;50.966;6.968;2023-03-21T01:08:14;11.70;;;4.38;;
46439;SDS011;32138;50.966;6.968;2023-03-21T01:09:18;8.32;;;3.85;;
46439;SDS011;32138;50.966;6.968;2023-03-21T01:10:21;9.88;;;4.68;;
46439;SDS011;32138;50.966;6.968;2023-03-21T01:11:23;10.60;;;4.32;;
46439;SDS011;32138;50.966;6.968;2023-03-21T01:12:27;12.43;;;4.22;;
46439;SDS011;32138;50.966;6.968;2023-03-21T01:13:27;8.77;;;4.75;;
46439;SDS011;32138;50.966;6.968;2023-03-21T01:14:28;9.93;;;4.43;;
46439;SDS011;32138;50.966;6.968;2023-03-21T01:15:29;12.02;;;4.25;;
46439;SDS011;32138;50.966;6.968;2023-03-21T01:16:30;8.90;;;3.70;;
46439;SDS011;32138;50.966;6.968;2023-03-21T01:17:31;9.90;;;4.32;;
46439;SDS011;32138;50.966;6.968;2023-03-21T01:18:32;12.50;;;4.82;;
46439;SDS011;32138;50.966;6.968;2023-03-21T01:19:35;11.18;;;4.25;;
46439;SDS011;32138;50.966;6.968;2023-03-21T01:20:36;11.77;;;4.95;;
46439;SDS011;32138;50.966;6.968;2023-03-21T01:21:40;11.40;;;4.97;;
46439;SDS011;32138;50.966;6.968;2023-03-21T01:22:42;11.65;;;5.28;;
46439;SDS011;32138;50.966;6.968;2023-03-21T01:23:43;12.18;;;5.00;;
46439;SDS011;32138;50.966;6.968;2023-03-21T01:24:44;9.32;;;4.18;;
46439;SDS011;32138;50.966;6.968;2023-03-21T01:25:46;12.27;;;4.97;;
46439;SDS011;32138;50.966;6.968;2023-03-21T01:26:48;10.65;;;4.70;;
46439;SDS011;32138;50.966;6.968;2023-03-21T01:27:49;7.90;;;4.40;;
46439;SDS011;32138;50.966;6.968;2023-03-21T01:28:50;11.25;;;4.43;;
46439;SDS011;32138;50.966;6.968;2023-03-21T01:29:51;12.90;;;4.40;;
46439;SDS011;32138;50.966;6.968;2023-03-21T01:30:51;10.73;;;3.95;;
46439;SDS011;32138;50.966;6.968;2023-03-21T01:31:52;10.82;;;4.43;;
46439;SDS011;32138;50.966;6.968;2023-03-21T01:32:54;10.23;;;4.78;;
46439;SDS011;32138;50.966;6.968;2023-03-21T01:33:55;11.93;;;4.63;;
46439;SDS011;32138;50.966;6.968;2023-03-21T01:34:56;11.35;;;4.93;;
46439;SDS011;32138;50.966;6.968;2023-03-21T01:35:57;11.07;;;4.85;;
46439;SDS011;32138;50.966;6.968;2023-03-21T01:36:58;8.77;;;4.90;;
46439;SDS011;32138;50.966;6.968;2023-03-21T01:37:59;9.32;;;4.75;;
46439;SDS011;32138;50.966;6.968;2023-03-21T01:39:00;14.07;;;4.85;;
46439;SDS011;32138;50.966;6.968;2023-03-21T01:40:02;11.48;;;4.40;;
46439;SDS011;32138;50.966;6.968;2023-03-21T01:41:04;10.68;;;4.53;;
46439;SDS011;32138;50.966;6.968;2023-03-21T01:42:05;10.77;;;4.75;;
46439;SDS011;32138;50.966;6.968;2023-03-21T01:43:16;11.35;;;4.90;;
46439;SDS011;32138;50.966;6.968;2023-03-21T01:44:27;9.13;;;4.05;;
46439;SDS011;32138;50.966;6.968;2023-03-21T01:48:09;14.38;;;4.50;;
46439;SDS011;32138;50.966;6.968;2023-03-21T01:49:15;13.27;;;4.60;;
46439;SDS011;32138;50.966;6.968;2023-03-21T01:50:33;10.20;;;4.40;;
46439;SDS011;32138;50.966;6.968;2023-03-21T01:51:37;12.85;;;5.05;;
46439;SDS011;32138;50.966;6.968;2023-03-21T01:52:42;11.27;;;4.53;;
46439;SDS011;32138;50.966;6.968;2023-03-21T01:53:45;12.95;;;4.88;;
46439;SDS011;32138;50.966;6.968;2023-03-21T01:54:47;12.65;;;5.70;;
46439;SDS011;32138;50.966;6.968;2023-03-21T01:55:48;10.95;;;3.95;;
46439;SDS011;32138;50.966;6.968;2023-03-21T01:56:49;12.65;;;5.43;;
46439;SDS011;32138;50.966;6.968;2023-03-21T01:57:53;13.25;;;5.47;;
46439;SDS011;32138;50.966;6.968;2023-03-21T01:58:58;10.52;;;5.63;;
46439;SDS011;32138;50.966;6.968;2023-03-21T02:00:07;12.48;;;4.78;;
46439;SDS011;32138;50.966;6.968;2023-03-21T02:01:11;12.48;;;5.00;;
46439;SDS011;32138;50.966;6.968;2023-03-21T02:02:21;12.88;;;4.70;;
46439;SDS011;32138;50.966;6.968;2023-03-21T02:03:27;11.93;;;4.72;;
46439;SDS011;32138;50.966;6.968;2023-03-21T02:04:37;9.38;;;4.75;;
46439;SDS011;32138;50.966;6.968;2023-03-21T02:05:58;11.88;;;4.50;;
46439;SDS011;32138;50.966;6.968;2023-03-21T02:07:14;11.55;;;5.60;;
46439;SDS011;32138;50.966;6.968;2023-03-21T02:08:23;11.38;;;4.47;;
46439;SDS011;32138;50.966;6.968;2023-03-21T02:09:25;12.23;;;4.72;;
46439;SDS011;32138;50.966;6.968;2023-03-21T02:10:31;9.07;;;5.35;;
46439;SDS011;32138;50.966;6.968;2023-03-21T02:11:32;11.90;;;5.18;;
46439;SDS011;32138;50.966;6.968;2023-03-21T02:12:34;10.43;;;5.43;;
46439;SDS011;32138;50.966;6.968;2023-03-21T02:13:35;13.75;;;5.40;;
46439;SDS011;32138;50.966;6.968;2023-03-21T02:14:36;16.10;;;5.63;;
46439;SDS011;32138;50.966;6.968;2023-03-21T02:15:39;9.88;;;4.82;;
46439;SDS011;32138;50.966;6.968;2023-03-21T02:18:21;10.27;;;5.35;;
46439;SDS011;32138;50.966;6.968;2023-03-21T02:24:30;12.23;;;4.88;;
46439;SDS011;32138;50.966;6.968;2023-03-21T02:26:13;11.13;;;4.50;;
46439;SDS011;32138;50.966;6.968;2023-03-21T02:28:00;12.93;;;5.00;;
46439;SDS011;32138;50.966;6.968;2023-03-21T02:32:01;13.20;;;4.88;;
46439;SDS011;32138;50.966;6.968;2023-03-21T02:38:20;8.45;;;4.55;;
46439;SDS011;32138;50.966;6.968;2023-03-21T02:40:09;10.20;;;4.75;;
46439;SDS011;32138;50.966;6.968;2023-03-21T02:41:18;11.27;;;4.07;;
46439;SDS011;32138;50.966;6.968;2023-03-21T02:44:00;12.32;;;4.45;;
46439;SDS011;32138;50.966;6.968;2023-03-21T02:45:24;10.57;;;4.65;;
46439;SDS011;32138;50.966;6.968;2023-03-21T02:46:47;10.38;;;4.55;;
46439;SDS011;32138;50.966;6.968;2023-03-21T02:48:40;15.43;;;5.32;;
46439;SDS011;32138;50.966;6.968;2023-03-21T02:50:11;8.70;;;4.25;;
46439;SDS011;32138;50.966;6.968;2023-03-21T02:51:32;12.98;;;5.05;;
46439;SDS011;32138;50.966;6.968;2023-03-21T02:52:36;11.52;;;5.30;;
46439;SDS011;32138;50.966;6.968;2023-03-21T02:53:39;10.50;;;4.95;;
46439;SDS011;32138;50.966;6.968;2023-03-21T02:54:45;10.93;;;5.15;;
46439;SDS011;32138;50.966;6.968;2023-03-21T02:55:47;13.80;;;5.68;;
46439;SDS011;32138;50.966;6.968;2023-03-21T02:56:50;13.52;;;5.50;;
46439;SDS011;32138;50.966;6.968;2023-03-21T02:57:53;13.18;;;5.43;;
46439;SDS011;32138;50.966;6.968;2023-03-21T02:58:56;13.15;;;5.22;;
46439;SDS011;32138;50.966;6.968;2023-03-21T02:59:57;9.30;;;5.20;;
46439;SDS011;32138;50.966;6.968;2023-03-21T03:00:59;11.70;;;5.22;;
46439;SDS011;32138;50.966;6.968;2023-03-21T03:02:00;9.88;;;5.07;;
46439;SDS011;32138;50.966;6.968;2023-03-21T03:03:01;11.80;;;5.43;;
46439;SDS011;32138;50.966;6.968;2023-03-21T03:04:03;14.35;;;5.55;;
46439;SDS011;32138;50.966;6.968;2023-03-21T03:05:17;13.60;;;5.13;;
46439;SDS011;32138;50.966;6.968;2023-03-21T03:06:25;17.15;;;5.75;;
46439;SDS011;32138;50.966;6.968;2023-03-21T03:07:41;9.85;;;4.93;;
46439;SDS011;32138;50.966;6.968;2023-03-21T03:09:23;15.57;;;5.13;;
46439;SDS011;32138;50.966;6.968;2023-03-21T03:10:35;12.13;;;4.55;;
46439;SDS011;32138;50.966;6.968;2023-03-21T03:12:01;14.27;;;4.72;;
46439;SDS011;32138;50.966;6.968;2023-03-21T03:13:32;10.25;;;4.88;;
46439;SDS011;32138;50.966;6.968;2023-03-21T03:17:50;10.95;;;4.80;;
46439;SDS011;32138;50.966;6.968;2023-03-21T03:19:02;12.70;;;4.65;;
46439;SDS011;32138;50.966;6.968;2023-03-21T03:20:10;9.15;;;5.03;;
46439;SDS011;32138;50.966;6.968;2023-03-21T03:21:29;13.00;;;5.43;;
46439;SDS011;32138;50.966;6.968;2023-03-21T03:22:46;16.45;;;5.30;;
46439;SDS011;32138;50.966;6.968;2023-03-21T03:24:00;10.73;;;4.60;;
46439;SDS011;32138;50.966;6.968;2023-03-21T03:25:12;10.05;;;5.13;;
46439;SDS011;32138;50.966;6.968;2023-03-21T03:26:23;10.68;;;5.15;;
46439;SDS011;32138;50.966;6.968;2023-03-21T03:27:31;11.65;;;4.88;;
46439;SDS011;32138;50.966;6.968;2023-03-21T03:28:40;14.90;;;5.85;;
46439;SDS011;32138;50.966;6.968;2023-03-21T03:29:45;11.80;;;5.05;;
46439;SDS011;32138;50.966;6.968;2023-03-21T03:30:48;12.20;;;5.15;;
46439;SDS011;32138;50.966;6.968;2023-03-21T03:31:58;20.30;;;5.55;;
46439;SDS011;32138;50.966;6.968;2023-03-21T03:33:05;14.13;;;5.15;;
46439;SDS011;32138;50.966;6.968;2023-03-21T03:34:12;17.48;;;5.18;;
46439;SDS011;32138;50.966;6.968;2023-03-21T03:35:19;16.52;;;5.63;;
46439;SDS011;32138;50.966;6.968;2023-03-21T03:36:23;11.25;;;5.07;;
46439;SDS011;32138;50.966;6.968;2023-03-21T03:37:31;12.68;;;5.32;;
46439;SDS011;32138;50.966;6.968;2023-03-21T03:38:35;9.82;;;4.93;;
46439;SDS011;32138;50.966;6.968;2023-03-21T03:39:49;9.75;;;5.07;;
46439;SDS011;32138;50.966;6.968;2023-03-21T03:41:25;12.10;;;4.53;;
46439;SDS011;32138;50.966;6.968;2023-03-21T03:42:28;13.30;;;4.95;;
46439;SDS011;32138;50.966;6.968;2023-03-21T03:43:35;13.07;;;4.80;;
46439;SDS011;32138;50.966;6.968;2023-03-21T03:44:49;11.30;;;5.70;;
46439;SDS011;32138;50.966;6.968;2023-03-21T03:45:53;8.82;;;5.32;;
46439;SDS011;32138;50.966;6.968;2023-03-21T03:47:01;7.40;;;4.75;;
46439;SDS011;32138;50.966;6.968;2023-03-21T03:49:24;13.40;;;5.00;;
46439;SDS011;32138;50.966;6.968;2023-03-21T03:50:42;15.75;;;4.72;;
46439;SDS011;32138;50.966;6.968;2023-03-21T03:53:21;12.85;;;4.93;;
46439;SDS011;32138;50.966;6.968;2023-03-21T03:54:31;12.68;;;5.05;;
46439;SDS011;32138;50.966;6.968;2023-03-21T03:55:37;11.13;;;5.10;;
46439;SDS011;32138;50.966;6.968;2023-03-21T03:56:38;16.95;;;4.93;;
46439;SDS011;32138;50.966;6.968;2023-03-21T03:57:39;16.05;;;4.72;;
46439;SDS011;32138;50.966;6.968;2023-03-21T03:58:40;10.48;;;4.53;;
46439;SDS011;32138;50.966;6.968;2023-03-21T03:59:42;14.93;;;5.60;;
46439;SDS011;32138;50.966;6.968;2023-03-21T04:00:45;11.30;;;5.35;;
46439;SDS011;32138;50.966;6.968;2023-03-21T04:01:46;14.93;;;5.15;;
46439;SDS011;32138;50.966;6.968;2023-03-21T04:02:48;10.75;;;4.65;;
46439;SDS011;32138;50.966;6.968;2023-03-21T04:03:48;10.88;;;5.00;;
46439;SDS011;32138;50.966;6.968;2023-03-21T04:04:49;10.18;;;4.70;;
46439;SDS011;32138;50.966;6.968;2023-03-21T04:05:52;11.90;;;4.75;;
46439;SDS011;32138;50.966;6.968;2023-03-21T04:06:53;12.50;;;6.18;;
46439;SDS011;32138;50.966;6.968;2023-03-21T04:07:55;15.65;;;5.65;;
46439;SDS011;32138;50.966;6.968;2023-03-21T04:08:56;12.18;;;5.32;;
46439;SDS011;32138;50.966;6.968;2023-03-21T04:09:57;12.75;;;4.85;;
46439;SDS011;32138;50.966;6.968;2023-03-21T04:10:58;11.05;;;5.72;;
46439;SDS011;32138;50.966;6.968;2023-03-21T04:12:01;14.90;;;5.30;;
46439;SDS011;32138;50.966;6.968;2023-03-21T04:13:02;8.88;;;4.65;;
46439;SDS011;32138;50.966;6.968;2023-03-21T04:14:03;13.38;;;5.50;;
46439;SDS011;32138;50.966;6.968;2023-03-21T04:15:04;12.57;;;5.63;;
46439;SDS011;32138;50.966;6.968;2023-03-21T04:16:06;14.27;;;5.10;;
46439;SDS011;32138;50.966;6.968;2023-03-21T04:17:10;14.68;;;4.78;;
46439;SDS011;32138;50.966;6.968;2023-03-21T04:18:11;13.73;;;4.68;;
46439;SDS011;32138;50.966;6.968;2023-03-21T04:19:12;11.73;;;5.07;;
46439;SDS011;32138;50.966;6.968;2023-03-21T04:20:14;15.65;;;5.55;;
46439;SDS011;32138;50.966;6.968;2023-03-21T04:21:15;12.10;;;5.40;;
46439;SDS011;32138;50.966;6.968;2023-03-21T04:22:16;12.35;;;5.55;;
46439;SDS011;32138;50.966;6.968;2023-03-21T04:23:18;10.25;;;5.45;;
46439;SDS011;32138;50.966;6.968;2023-03-21T04:24:19;13.43;;;5.05;;
46439;SDS011;32138;50.966;6.968;2023-03-21T04:25:20;12.52;;;4.95;;
46439;SDS011;32138;50.966;6.968;2023-03-21T04:26:21;14.15;;;5.45;;
46439;SDS011;32138;50.966;6.968;2023-03-21T04:27:22;9.95;;;5.53;;
46439;SDS011;32138;50.966;6.968;2023-03-21T04:28:23;13.30;;;5.43;;
46439;SDS011;32138;50.966;6.968;2023-03-21T04:29:24;15.32;;;4.88;;
46439;SDS011;32138;50.966;6.968;2023-03-21T04:30:28;12.02;;;5.15;;
46439;SDS011;32138;50.966;6.968;2023-03-21T04:31:33;11.30;;;5.25;;
46439;SDS011;32138;50.966;6.968;2023-03-21T04:32:34;15.80;;;5.65;;
46439;SDS011;32138;50.966;6.968;2023-03-21T04:33:38;14.88;;;5.68;;
46439;SDS011;32138;50.966;6.968;2023-03-21T04:34:39;11.52;;;5.03;;
46439;SDS011;32138;50.966;6.968;2023-03-21T04:35:48;14.85;;;5.28;;
46439;SDS011;32138;50.966;6.968;2023-03-21T04:36:49;10.43;;;4.65;;
46439;SDS011;32138;50.966;6.968;2023-03-21T04:37:53;9.38;;;5.13;;
46439;SDS011;32138;50.966;6.968;2023-03-21T04:38:54;11.25;;;5.30;;
46439;SDS011;32138;50.966;6.968;2023-03-21T04:40:00;17.67;;;4.75;;
46439;SDS011;32138;50.966;6.968;2023-03-21T04:41:06;12.60;;;5.25;;
46439;SDS011;32138;50.966;6.968;2023-03-21T04:42:07;17.92;;;5.22;;
46439;SDS011;32138;50.966;6.968;2023-03-21T04:43:08;15.40;;;5.57;;
46439;SDS011;32138;50.966;6.968;2023-03-21T04:44:09;14.15;;;5.68;;
46439;SDS011;32138;50.966;6.968;2023-03-21T04:45:10;13.93;;;5.68;;
46439;SDS011;32138;50.966;6.968;2023-03-21T04:46:12;14.60;;;4.65;;
46439;SDS011;32138;50.966;6.968;2023-03-21T04:47:13;12.43;;;5.30;;
46439;SDS011;32138;50.966;6.968;2023-03-21T04:48:19;13.95;;;5.80;;
46439;SDS011;32138;50.966;6.968;2023-03-21T04:49:23;10.48;;;5.22;;
46439;SDS011;32138;50.966;6.968;2023-03-21T04:50:24;11.95;;;5.65;;
46439;SDS011;32138;50.966;6.968;2023-03-21T04:51:25;13.27;;;5.30;;
46439;SDS011;32138;50.966;6.968;2023-03-21T04:52:26;11.75;;;5.97;;
46439;SDS011;32138;50.966;6.968;2023-03-21T04:53:27;13.15;;;5.85;;
46439;SDS011;32138;50.966;6.968;2023-03-21T04:54:27;19.38;;;5.57;;
46439;SDS011;32138;50.966;6.968;2023-03-21T04:55:28;14.18;;;5.88;;
46439;SDS011;32138;50.966;6.968;2023-03-21T04:56:30;11.48;;;5.28;;
46439;SDS011;32138;50.966;6.968;2023-03-21T04:57:32;12.05;;;4.68;;
46439;SDS011;32138;50.966;6.968;2023-03-21T04:58:33;11.75;;;4.80;;
46439;SDS011;32138;50.966;6.968;2023-03-21T04:59:34;14.18;;;5.70;;
46439;SDS011;32138;50.966;6.968;2023-03-21T05:00:35;12.38;;;5.45;;
46439;SDS011;32138;50.966;6.968;2023-03-21T05:01:38;11.93;;;4.75;;
46439;SDS011;32138;50.966;6.968;2023-03-21T05:02:42;9.65;;;5.38;;
46439;SDS011;32138;50.966;6.968;2023-03-21T05:03:43;12.70;;;4.72;;
46439;SDS011;32138;50.966;6.968;2023-03-21T05:04:44;14.43;;;5.85;;
46439;SDS011;32138;50.966;6.968;2023-03-21T05:05:45;13.25;;;5.30;;
46439;SDS011;32138;50.966;6.968;2023-03-21T05:06:46;9.68;;;5.25;;
46439;SDS011;32138;50.966;6.968;2023-03-21T05:07:47;13.38;;;5.00;;
46439;SDS011;32138;50.966;6.968;2023-03-21T05:08:48;12.25;;;4.65;;
46439;SDS011;32138;50.966;6.968;2023-03-21T05:09:49;11.45;;;4.75;;
46439;SDS011;32138;50.966;6.968;2023-03-21T05:10:49;11.73;;;6.00;;
46439;SDS011;32138;50.966;6.968;2023-03-21T05:11:50;17.52;;;6.35;;
46439;SDS011;32138;50.966;6.968;2023-03-21T05:12:51;13.55;;;5.55;;
46439;SDS011;32138;50.966;6.968;2023-03-21T05:13:52;14.77;;;5.47;;
46439;SDS011;32138;50.966;6.968;2023-03-21T05:14:53;9.90;;;4.95;;
46439;SDS011;32138;50.966;6.968;2023-03-21T05:15:54;15.43;;;5.43;;
46439;SDS011;32138;50.966;6.968;2023-03-21T05:16:54;11.70;;;5.32;;
46439;SDS011;32138;50.966;6.968;2023-03-21T05:17:56;12.52;;;4.55;;
46439;SDS011;32138;50.966;6.968;2023-03-21T05:18:57;8.48;;;4.90;;
46439;SDS011;32138;50.966;6.968;2023-03-21T05:20:03;11.02;;;4.95;;
46439;SDS011;32138;50.966;6.968;2023-03-21T05:21:06;19.42;;;5.85;;
46439;SDS011;32138;50.966;6.968;2023-03-21T05:22:09;15.43;;;5.45;;
46439;SDS011;32138;50.966;6.968;2023-03-21T05:23:11;16.17;;;5.95;;
46439;SDS011;32138;50.966;6.968;2023-03-21T05:24:15;11.43;;;5.15;;
46439;SDS011;32138;50.966;6.968;2023-03-21T05:25:19;7.80;;;5.18;;
46439;SDS011;32138;50.966;6.968;2023-03-21T05:26:34;14.40;;;5.85;;
46439;SDS011;32138;50.966;6.968;2023-03-21T05:27:34;18.20;;;5.82;;
46439;SDS011;32138;50.966;6.968;2023-03-21T05:28:35;13.45;;;5.72;;
46439;SDS011;32138;50.966;6.968;2023-03-21T05:29:36;13.35;;;5.60;;
46439;SDS011;32138;50.966;6.968;2023-03-21T05:30:37;17.63;;;6.00;;
46439;SDS011;32138;50.966;6.968;2023-03-21T05:31:38;11.00;;;5.57;;
46439;SDS011;32138;50.966;6.968;2023-03-21T05:32:39;14.85;;;5.63;;
46439;SDS011;32138;50.966;6.968;2023-03-21T05:33:40;12.07;;;5.10;;
46439;SDS011;32138;50.966;6.968;2023-03-21T05:34:40;17.25;;;6.65;;
46439;SDS011;32138;50.966;6.968;2023-03-21T05:35:41;16.35;;;5.82;;
46439;SDS011;32138;50.966;6.968;2023-03-21T05:36:42;17.23;;;5.40;;
46439;SDS011;32138;50.966;6.968;2023-03-21T05:37:42;16.02;;;6.35;;
46439;SDS011;32138;50.966;6.968;2023-03-21T05:38:43;14.90;;;6.00;;
46439;SDS011;32138;50.966;6.968;2023-03-21T05:39:45;12.95;;;5.45;;
46439;SDS011;32138;50.966;6.968;2023-03-21T05:40:46;11.30;;;5.72;;
46439;SDS011;32138;50.966;6.968;2023-03-21T05:41:48;13.98;;;5.75;;
46439;SDS011;32138;50.966;6.968;2023-03-21T05:42:49;11.50;;;5.63;;
46439;SDS011;32138;50.966;6.968;2023-03-21T05:43:50;13.05;;;5.32;;
46439;SDS011;32138;50.966;6.968;2023-03-21T05:44:51;19.38;;;6.03;;
46439;SDS011;32138;50.966;6.968;2023-03-21T05:45:52;13.40;;;5.35;;
46439;SDS011;32138;50.966;6.968;2023-03-21T05:46:52;12.05;;;5.55;;
46439;SDS011;32138;50.966;6.968;2023-03-21T05:47:53;11.52;;;5.10;;
46439;SDS011;32138;50.966;6.968;2023-03-21T05:48:54;11.63;;;5.53;;
46439;SDS011;32138;50.966;6.968;2023-03-21T05:49:54;13.98;;;6.07;;
46439;SDS011;32138;50.966;6.968;2023-03-21T05:50:55;13.88;;;6.03;;
46439;SDS011;32138;50.966;6.968;2023-03-21T05:51:56;12.40;;;5.60;;
46439;SDS011;32138;50.966;6.968;2023-03-21T05:52:57;12.45;;;6.07;;
46439;SDS011;32138;50.966;6.968;2023-03-21T05:53:58;14.90;;;6.53;;
46439;SDS011;32138;50.966;6.968;2023-03-21T05:54:59;11.07;;;5.45;;
46439;SDS011;32138;50.966;6.968;2023-03-21T05:55:59;16.52;;;5.88;;
46439;SDS011;32138;50.966;6.968;2023-03-21T05:57:01;13.60;;;6.40;;
46439;SDS011;32138;50.966;6.968;2023-03-21T05:58:03;10.48;;;6.43;;
46439;SDS011;32138;50.966;6.968;2023-03-21T05:59:04;16.98;;;6.72;;
46439;SDS011;32138;50.966;6.968;2023-03-21T06:00:05;11.55;;;5.05;;
46439;SDS011;32138;50.966;6.968;2023-03-21T06:01:07;14.35;;;6.15;;
46439;SDS011;32138;50.966;6.968;2023-03-21T06:02:08;12.73;;;5.88;;
46439;SDS011;32138;50.966;6.968;2023-03-21T06:03:09;13.35;;;5.82;;
46439;SDS011;32138;50.966;6.968;2023-03-21T06:04:10;13.23;;;5.93;;
46439;SDS011;32138;50.966;6.968;2023-03-21T06:05:10;12.70;;;5.30;;
46439;SDS011;32138;50.966;6.968;2023-03-21T06:06:11;16.33;;;6.05;;
46439;SDS011;32138;50.966;6.968;2023-03-21T06:07:12;14.20;;;6.00;;
46439;SDS011;32138;50.966;6.968;2023-03-21T06:08:12;14.63;;;6.28;;
46439;SDS011;32138;50.966;6.968;2023-03-21T06:09:13;15.27;;;6.88;;
46439;SDS011;32138;50.966;6.968;2023-03-21T06:10:14;15.85;;;6.13;;
46439;SDS011;32138;50.966;6.968;2023-03-21T06:11:19;19.38;;;7.03;;
46439;SDS011;32138;50.966;6.968;2023-03-21T06:12:32;20.60;;;6.00;;
46439;SDS011;32138;50.966;6.968;2023-03-21T06:13:33;12.05;;;6.05;;
46439;SDS011;32138;50.966;6.968;2023-03-21T06:14:33;14.10;;;5.55;;
46439;SDS011;32138;50.966;6.968;2023-03-21T06:15:34;12.82;;;6.20;;
46439;SDS011;32138;50.966;6.968;2023-03-21T06:16:35;16.38;;;7.35;;
46439;SDS011;32138;50.966;6.968;2023-03-21T06:17:36;12.18;;;5.63;;
46439;SDS011;32138;50.966;6.968;2023-03-21T06:18:36;18.77;;;6.70;;
46439;SDS011;32138;50.966;6.968;2023-03-21T06:19:37;15.65;;;5.65;;
46439;SDS011;32138;50.966;6.968;2023-03-21T06:20:38;12.38;;;6.80;;
46439;SDS011;32138;50.966;6.968;2023-03-21T06:21:40;20.33;;;6.68;;
46439;SDS011;32138;50.966;6.968;2023-03-21T06:22:41;18.27;;;6.70;;
46439;SDS011;32138;50.966;6.968;2023-03-21T06:23:42;14.95;;;6.30;;
46439;SDS011;32138;50.966;6.968;2023-03-21T06:24:43;17.10;;;6.25;;
46439;SDS011;32138;50.966;6.968;2023-03-21T06:25:43;16.55;;;7.03;;
46439;SDS011;32138;50.966;6.968;2023-03-21T06:26:44;13.65;;;5.55;;
46439;SDS011;32138;50.966;6.968;2023-03-21T06:27:45;12.93;;;6.53;;
46439;SDS011;32138;50.966;6.968;2023-03-21T06:28:46;17.67;;;6.63;;
46439;SDS011;32138;50.966;6.968;2023-03-21T06:29:47;15.40;;;7.03;;
46439;SDS011;32138;50.966;6.968;2023-03-21T06:30:48;17.55;;;6.10;;
46439;SDS011;32138;50.966;6.968;2023-03-21T06:31:49;13.85;;;6.38;;
46439;SDS011;32138;50.966;6.968;2023-03-21T06:32:49;12.90;;;6.05;;
46439;SDS011;32138;50.966;6.968;2023-03-21T06:33:50;18.85;;;7.28;;
46439;SDS011;32138;50.966;6.968;2023-03-21T06:34:51;16.02;;;6.47;;
46439;SDS011;32138;50.966;6.968;2023-03-21T06:35:53;12.75;;;5.97;;
46439;SDS011;32138;50.966;6.968;2023-03-21T06:36:55;12.57;;;6.38;;
46439;SDS011;32138;50.966;6.968;2023-03-21T06:37:56;17.02;;;7.85;;
46439;SDS011;32138;50.966;6.968;2023-03-21T06:38:58;14.57;;;7.60;;
46439;SDS011;32138;50.966;6.968;2023-03-21T06:39:58;12.77;;;6.80;;
46439;SDS011;32138;50.966;6.968;2023-03-21T06:40:59;20.60;;;10.88;;
46439;SDS011;32138;50.966;6.968;2023-03-21T06:42:03;17.27;;;7.72;;
46439;SDS011;32138;50.966;6.968;2023-03-21T06:43:04;14.27;;;6.90;;
46439;SDS011;32138;50.966;6.968;2023-03-21T06:44:05;14.15;;;6.55;;
46439;SDS011;32138;50.966;6.968;2023-03-21T06:45:05;12.82;;;6.40;;
46439;SDS011;32138;50.966;6.968;2023-03-21T06:46:07;14.15;;;7.28;;